createdAt,value
2018-12-11T00:00:54.847Z,51.40
2018-12-11T00:03:24.025Z,50.70
2018-12-11T00:05:53.223Z,50.80
2018-12-11T00:08:22.419Z,51.30
2018-12-11T00:10:51.622Z,50.70
2018-12-11T00:13:20.781Z,50.80
2018-12-11T00:15:49.954Z,50.60
2018-12-11T00:18:19.213Z,50.70
2018-12-11T00:20:48.387Z,50.70
2018-12-11T00:23:17.674Z,50.70
2018-12-11T00:25:46.850Z,50.50
2018-12-11T00:28:16.103Z,50.60
2018-12-11T00:30:45.286Z,50.40
2018-12-11T00:33:14.488Z,50.60
2018-12-11T00:35:43.669Z,50.50
2018-12-11T00:38:12.916Z,50.40
2018-12-11T00:40:42.098Z,50.50
2018-12-11T00:43:11.260Z,51.10
2018-12-11T00:45:40.417Z,50.40
2018-12-11T00:48:09.794Z,50.40
2018-12-11T00:50:38.955Z,50.40
2018-12-11T00:53:08.130Z,50.40
2018-12-11T00:55:37.470Z,50.40
2018-12-11T00:58:06.686Z,50.40
2018-12-11T01:00:35.859Z,50.40
2018-12-11T01:03:05.011Z,50.30
2018-12-11T01:05:34.184Z,50.40
2018-12-11T01:08:03.422Z,50.40
2018-12-11T01:10:32.585Z,50.40
2018-12-11T01:13:01.775Z,50.40
2018-12-11T01:15:30.937Z,50.30
2018-12-11T01:18:00.114Z,50.20
2018-12-11T01:20:29.267Z,50.30
2018-12-11T01:22:58.715Z,50.20
2018-12-11T01:25:27.914Z,50.30
2018-12-11T01:27:57.170Z,50.20
2018-12-11T01:30:26.329Z,50.20
2018-12-11T01:32:55.490Z,50.20
2018-12-11T01:35:24.634Z,50.20
2018-12-11T01:37:53.853Z,50.10
2018-12-11T01:40:23.018Z,50.10
2018-12-11T01:42:52.198Z,50.10
2018-12-11T01:45:21.392Z,50.10
2018-12-11T01:47:50.629Z,50.10
2018-12-11T01:50:19.785Z,50.20
2018-12-11T01:52:48.947Z,50.00
2018-12-11T01:55:18.137Z,50.00
2018-12-11T01:57:47.437Z,50.20
2018-12-11T02:00:16.683Z,50.00
2018-12-11T02:02:45.830Z,50.00
2018-12-11T02:05:15.007Z,50.00
2018-12-11T02:07:44.233Z,50.00
2018-12-11T02:10:13.406Z,49.90
2018-12-11T02:12:42.570Z,49.90
2018-12-11T02:15:11.987Z,49.90
2018-12-11T02:17:41.311Z,49.90
2018-12-11T02:20:10.471Z,49.90
2018-12-11T02:22:39.626Z,49.90
2018-12-11T02:25:08.822Z,49.90
2018-12-11T02:27:39.046Z,50.00
2018-12-11T02:30:08.210Z,50.00
2018-12-11T02:32:37.723Z,49.90
2018-12-11T02:35:06.891Z,49.90
2018-12-11T02:37:36.155Z,49.80
2018-12-11T02:40:05.754Z,49.70
2018-12-11T02:42:34.914Z,49.80
2018-12-11T02:45:04.076Z,49.70
2018-12-11T02:47:34.228Z,49.70
2018-12-11T02:50:03.407Z,49.70
2018-12-11T02:52:32.559Z,49.80
2018-12-11T02:55:01.723Z,49.80
2018-12-11T02:57:30.958Z,49.80
2018-12-11T03:00:00.120Z,49.70
2018-12-11T03:02:29.333Z,49.70
2018-12-11T03:04:58.620Z,49.70
2018-12-11T03:07:27.818Z,49.70
2018-12-11T03:09:56.992Z,49.60
2018-12-11T03:12:26.147Z,49.70
2018-12-11T03:14:55.309Z,49.60
2018-12-11T03:17:24.546Z,49.50
2018-12-11T03:19:53.723Z,49.60
2018-12-11T03:22:22.864Z,49.70
2018-12-11T03:24:52.036Z,49.50
2018-12-11T03:27:21.446Z,49.60
2018-12-11T03:29:50.598Z,49.70
2018-12-11T03:32:19.758Z,49.60
2018-12-11T03:34:48.941Z,49.50
2018-12-11T03:37:18.226Z,49.60
2018-12-11T03:39:47.389Z,49.60
2018-12-11T03:42:16.550Z,49.60
2018-12-11T03:44:45.726Z,49.60
2018-12-11T03:47:14.924Z,49.60
2018-12-11T03:49:44.092Z,49.60
2018-12-11T03:52:13.366Z,49.60
2018-12-11T03:54:42.544Z,49.50
2018-12-11T03:57:11.809Z,49.50
2018-12-11T03:59:41.016Z,49.50
2018-12-11T04:02:10.216Z,49.50
2018-12-11T04:04:39.410Z,49.50
2018-12-11T04:07:08.603Z,49.50
2018-12-11T04:09:38.255Z,49.50
2018-12-11T04:12:07.691Z,49.50
2018-12-11T04:14:37.206Z,49.40
2018-12-11T04:17:06.426Z,49.50
2018-12-11T04:19:35.665Z,49.40
2018-12-11T04:22:04.823Z,49.40
2018-12-11T04:24:34.146Z,49.40
2018-12-11T04:27:03.464Z,49.50
2018-12-11T04:29:32.632Z,49.50
2018-12-11T04:32:01.785Z,49.30
2018-12-11T04:34:30.950Z,49.50
2018-12-11T04:37:00.182Z,49.40
2018-12-11T04:39:33.952Z,49.40
2018-12-11T04:42:00.790Z,49.40
2018-12-11T04:44:29.959Z,49.60
2018-12-11T04:46:59.153Z,49.40
2018-12-11T04:49:28.316Z,49.90
2018-12-11T04:51:57.475Z,49.40
2018-12-11T04:54:26.746Z,49.40
2018-12-11T04:56:56.011Z,49.40
2018-12-11T04:59:25.175Z,49.40
2018-12-11T05:01:54.343Z,49.40
2018-12-11T05:04:23.518Z,49.40
2018-12-11T05:06:52.703Z,49.40
2018-12-11T05:09:21.875Z,49.30
2018-12-11T05:11:51.031Z,49.30
2018-12-11T05:14:20.307Z,49.30
2018-12-11T05:16:49.473Z,49.30
2018-12-11T05:19:19.755Z,49.30
2018-12-11T05:21:48.922Z,49.00
2018-12-11T05:24:18.118Z,50.00
2018-12-11T05:26:47.276Z,49.40
2018-12-11T05:29:16.560Z,49.70
2018-12-11T05:31:45.741Z,50.00
2018-12-11T05:34:14.923Z,50.40
2018-12-11T05:36:44.066Z,50.10
2018-12-11T05:39:13.381Z,49.70
2018-12-11T05:41:42.733Z,50.10
2018-12-11T05:44:11.963Z,50.30
2018-12-11T05:46:41.350Z,50.20
2018-12-11T05:49:10.602Z,50.40
2018-12-11T05:51:39.814Z,50.00
2018-12-11T05:54:09.045Z,48.90
2018-12-11T05:56:38.260Z,48.70
2018-12-11T05:59:07.437Z,49.50
2018-12-11T06:01:36.739Z,49.90
2018-12-11T06:04:05.934Z,50.10
2018-12-11T06:06:35.146Z,50.20
2018-12-11T06:09:06.285Z,50.00
2018-12-11T06:11:35.498Z,50.50
2018-12-11T06:14:04.731Z,50.30
2018-12-11T06:16:33.958Z,50.20
2018-12-11T06:19:04.460Z,50.20
2018-12-11T06:21:33.644Z,50.20
2018-12-11T06:24:02.874Z,50.00
2018-12-11T06:26:32.092Z,50.20
2018-12-11T06:29:01.381Z,50.10
2018-12-11T06:31:30.653Z,50.10
2018-12-11T06:33:59.936Z,50.20
2018-12-11T06:36:29.181Z,50.10
2018-12-11T06:38:58.453Z,50.20
2018-12-11T06:41:27.662Z,50.30
2018-12-11T06:43:56.888Z,50.20
2018-12-11T06:46:26.154Z,50.10
2018-12-11T06:48:56.461Z,50.30
2018-12-11T06:51:25.803Z,50.10
2018-12-11T06:53:55.759Z,50.10
2018-12-11T06:56:25.309Z,50.00
2018-12-11T06:58:54.627Z,50.00
2018-12-11T07:01:23.901Z,50.20
2018-12-11T07:03:53.619Z,49.90
2018-12-11T07:06:23.180Z,49.90
2018-12-11T07:08:52.508Z,49.80
2018-12-11T07:11:21.811Z,49.90
2018-12-11T07:13:51.017Z,50.00
2018-12-11T07:16:20.242Z,49.90
2018-12-11T07:18:49.523Z,49.80
2018-12-11T07:21:18.923Z,49.80
2018-12-11T07:23:48.156Z,49.70
2018-12-11T07:26:17.454Z,49.80
2018-12-11T07:28:46.761Z,49.90
2018-12-11T07:31:16.012Z,49.80
2018-12-11T07:33:50.695Z,50.50
2018-12-11T07:36:16.728Z,49.70
2018-12-11T07:38:46.079Z,49.90
2018-12-11T07:41:15.310Z,49.80
2018-12-11T07:43:44.705Z,49.70
2018-12-11T07:46:14.020Z,49.70
2018-12-11T07:48:43.239Z,49.70
2018-12-11T07:51:12.491Z,49.80
2018-12-11T07:53:41.806Z,49.50
2018-12-11T07:56:11.089Z,49.80
2018-12-11T07:58:40.402Z,49.80
2018-12-11T08:01:09.674Z,49.90
2018-12-11T08:03:38.890Z,49.70
2018-12-11T08:06:08.135Z,49.70
2018-12-11T08:08:37.520Z,49.60
2018-12-11T08:11:06.803Z,49.70
2018-12-11T08:13:36.690Z,49.80
2018-12-11T08:16:06.343Z,49.70
2018-12-11T08:18:35.711Z,49.60
2018-12-11T08:21:04.932Z,49.70
2018-12-11T08:23:34.167Z,49.50
2018-12-11T08:26:03.431Z,49.50
2018-12-11T08:28:32.687Z,49.60
2018-12-11T08:31:01.941Z,49.70
2018-12-11T08:33:31.159Z,49.30
2018-12-11T08:36:00.409Z,49.50
2018-12-11T08:38:29.662Z,49.30
2018-12-11T08:40:58.911Z,49.20
2018-12-11T08:43:28.184Z,49.30
2018-12-11T08:45:57.422Z,49.20
2018-12-11T08:48:26.783Z,49.10
2018-12-11T08:50:56.028Z,49.20
2018-12-11T08:53:25.288Z,49.10
2018-12-11T08:55:54.546Z,49.10
2018-12-11T08:58:23.998Z,49.10
2018-12-11T09:00:53.230Z,49.20
2018-12-11T09:03:22.438Z,49.10
2018-12-11T09:05:51.664Z,49.20
2018-12-11T09:08:21.011Z,49.50
2018-12-11T09:10:50.253Z,49.10
2018-12-11T09:13:19.507Z,49.70
2018-12-11T09:15:48.728Z,49.10
2018-12-11T09:18:17.989Z,48.90
2018-12-11T09:20:47.186Z,49.00
2018-12-11T09:23:16.420Z,48.80
2018-12-11T09:25:45.682Z,48.90
2018-12-11T09:28:14.990Z,48.80
2018-12-11T09:30:44.490Z,48.80
2018-12-11T09:33:13.779Z,48.80
2018-12-11T09:35:43.113Z,48.80
2018-12-11T09:38:12.569Z,48.80
2018-12-11T09:40:41.810Z,48.80
2018-12-11T09:43:11.013Z,48.80
2018-12-11T09:45:40.230Z,48.80
2018-12-11T09:48:09.530Z,48.90
2018-12-11T09:50:38.736Z,49.10
2018-12-11T09:53:08.023Z,49.00
2018-12-11T09:55:37.331Z,48.90
2018-12-11T09:58:06.626Z,49.00
2018-12-11T10:00:36.249Z,49.60
2018-12-11T10:03:05.672Z,49.00
2018-12-11T10:05:34.911Z,49.10
2018-12-11T10:08:04.176Z,49.10
2018-12-11T10:10:33.487Z,49.00
2018-12-11T10:13:02.729Z,49.20
2018-12-11T10:15:31.992Z,49.00
2018-12-11T10:18:01.271Z,49.10
2018-12-11T10:20:30.570Z,49.20
2018-12-11T10:23:00.715Z,49.20
2018-12-11T10:25:29.992Z,49.10
2018-12-11T10:27:59.314Z,49.20
2018-12-11T10:30:32.687Z,49.80
2018-12-11T10:33:01.918Z,49.20
2018-12-11T10:35:31.319Z,49.30
2018-12-11T10:38:00.568Z,49.30
2018-12-11T10:40:29.851Z,49.30
2018-12-11T10:42:59.109Z,49.40
2018-12-11T10:45:28.338Z,49.30
2018-12-11T10:47:57.624Z,49.50
2018-12-11T10:50:26.931Z,49.40
2018-12-11T10:52:56.206Z,49.30
2018-12-11T10:55:25.470Z,49.30
2018-12-11T10:57:54.878Z,49.30
2018-12-11T11:00:29.208Z,49.50
2018-12-11T11:03:03.691Z,49.60
2018-12-11T11:05:33.028Z,49.20
2018-12-11T11:08:02.420Z,49.30
2018-12-11T11:10:31.651Z,49.30
2018-12-11T11:13:01.019Z,49.30
2018-12-11T11:15:30.411Z,49.30
2018-12-11T11:17:59.864Z,49.20
2018-12-11T11:20:29.095Z,49.40
2018-12-11T11:22:58.409Z,49.10
2018-12-11T11:25:27.705Z,49.20
2018-12-11T11:27:57.058Z,49.50
2018-12-11T11:30:26.393Z,49.10
2018-12-11T11:32:55.663Z,49.00
2018-12-11T11:35:24.963Z,48.90
2018-12-11T11:37:54.502Z,48.90
2018-12-11T11:40:23.831Z,48.90
2018-12-11T11:42:53.071Z,48.90
2018-12-11T11:45:22.307Z,49.00
2018-12-11T11:47:51.563Z,49.10
2018-12-11T11:50:21.369Z,48.90
2018-12-11T11:52:50.579Z,48.60
2018-12-11T11:55:19.895Z,48.70
2018-12-11T11:57:49.190Z,48.70
2018-12-11T12:00:18.432Z,48.80
2018-12-11T12:02:47.731Z,48.70
2018-12-11T12:05:17.030Z,48.70
2018-12-11T12:07:46.305Z,48.80
2018-12-11T12:10:15.697Z,48.70
2018-12-11T12:12:44.891Z,48.60
2018-12-11T12:15:14.164Z,48.40
2018-12-11T12:17:43.525Z,48.50
2018-12-11T12:20:12.758Z,48.50
2018-12-11T12:23:15.108Z,48.40
2018-12-11T12:25:44.338Z,48.30
2018-12-11T12:28:13.678Z,48.50
2018-12-11T12:30:43.489Z,48.30
2018-12-11T12:33:12.790Z,48.40
2018-12-11T12:35:42.014Z,48.30
2018-12-11T12:38:11.251Z,48.40
2018-12-11T12:40:40.583Z,48.40
2018-12-11T12:43:09.883Z,48.40
2018-12-11T12:45:39.274Z,48.40
2018-12-11T12:48:08.737Z,48.40
2018-12-11T12:50:38.086Z,48.30
2018-12-11T12:53:07.500Z,48.40
2018-12-11T12:55:36.821Z,48.40
2018-12-11T12:58:06.281Z,49.00
2018-12-11T13:00:35.595Z,48.50
2018-12-11T13:03:04.916Z,48.40
2018-12-11T13:05:34.256Z,48.30
2018-12-11T13:08:03.653Z,48.30
2018-12-11T13:10:33.752Z,48.30
2018-12-11T13:13:03.420Z,48.40
2018-12-11T13:15:32.750Z,48.30
2018-12-11T13:18:02.082Z,48.30
2018-12-11T13:20:31.432Z,48.20
2018-12-11T13:23:00.737Z,48.20
2018-12-11T13:25:30.061Z,48.20
2018-12-11T13:27:59.464Z,48.30
2018-12-11T13:30:29.147Z,48.30
2018-12-11T13:32:58.491Z,48.20
2018-12-11T13:35:27.755Z,48.20
2018-12-11T13:37:57.048Z,48.20
2018-12-11T13:40:26.721Z,48.20
2018-12-11T13:42:56.235Z,48.30
2018-12-11T13:45:25.648Z,48.30
2018-12-11T13:47:54.993Z,48.20
2018-12-11T13:50:24.400Z,48.30
2018-12-11T13:52:53.714Z,48.30
2018-12-11T13:55:22.966Z,48.20
2018-12-11T13:57:52.379Z,48.30
2018-12-11T14:00:21.724Z,48.10
2018-12-11T14:02:51.147Z,48.10
2018-12-11T14:05:20.411Z,48.30
2018-12-11T14:07:49.782Z,48.20
2018-12-11T14:10:19.264Z,48.10
2018-12-11T14:12:48.748Z,48.00
2018-12-11T14:15:17.987Z,48.30
2018-12-11T14:17:47.290Z,48.20
2018-12-11T14:20:16.693Z,48.10
2018-12-11T14:22:45.942Z,47.90
2018-12-11T14:25:15.344Z,48.00
2018-12-11T14:27:44.804Z,48.10
2018-12-11T14:30:14.226Z,47.90
2018-12-11T14:32:43.562Z,48.00
2018-12-11T14:35:13.174Z,48.10
2018-12-11T14:37:43.126Z,48.10
2018-12-11T14:40:12.415Z,48.00
2018-12-11T14:42:41.779Z,48.00
2018-12-11T14:45:11.132Z,48.10
2018-12-11T14:47:40.462Z,47.90
2018-12-11T14:50:10.273Z,48.00
2018-12-11T14:52:39.642Z,48.20
2018-12-11T14:55:08.953Z,48.80
2018-12-11T14:57:38.236Z,48.10
2018-12-11T15:00:08.638Z,48.00
2018-12-11T15:02:38.278Z,48.00
2018-12-11T15:05:07.787Z,48.00
2018-12-11T15:07:37.187Z,48.00
2018-12-11T15:10:09.002Z,47.90
2018-12-11T15:12:38.275Z,48.00
2018-12-11T15:15:09.323Z,48.10
2018-12-11T15:17:38.663Z,48.10
2018-12-11T15:20:09.337Z,48.20
2018-12-11T15:22:38.715Z,47.60
2018-12-11T15:25:08.027Z,47.90
2018-12-11T15:27:37.450Z,48.00
2018-12-11T15:30:06.935Z,48.10
2018-12-11T15:32:36.358Z,48.30
2018-12-11T15:35:05.739Z,48.30
2018-12-11T15:37:35.120Z,48.10
2018-12-11T15:40:04.872Z,47.90
2018-12-11T15:42:34.168Z,48.00
2018-12-11T15:45:03.475Z,48.00
2018-12-11T15:47:32.827Z,47.90
2018-12-11T15:50:02.310Z,47.90
2018-12-11T15:52:31.659Z,47.80
2018-12-11T15:55:01.003Z,47.90
2018-12-11T15:57:30.263Z,47.80
2018-12-11T15:59:59.570Z,47.60
2018-12-11T16:02:28.897Z,48.30
2018-12-11T16:04:58.334Z,48.50
2018-12-11T16:07:27.802Z,49.20
2018-12-11T16:09:57.181Z,48.40
2018-12-11T16:12:26.764Z,48.50
2018-12-11T16:14:56.108Z,48.20
2018-12-11T16:17:25.405Z,48.20
2018-12-11T16:19:54.756Z,48.70
2018-12-11T16:22:24.103Z,49.60
2018-12-11T16:24:53.799Z,50.40
2018-12-11T16:27:23.573Z,52.20
2018-12-11T16:29:52.956Z,51.60
2018-12-11T16:32:22.214Z,50.70
2018-12-11T16:34:51.512Z,50.20
2018-12-11T16:37:20.878Z,50.20
2018-12-11T16:39:50.143Z,50.30
2018-12-11T16:42:19.401Z,50.40
2018-12-11T16:44:48.823Z,50.50
2018-12-11T16:47:18.184Z,50.60
2018-12-11T16:49:47.434Z,50.70
2018-12-11T16:52:16.758Z,50.80
2018-12-11T16:54:46.142Z,50.80
2018-12-11T16:57:15.455Z,50.80
2018-12-11T16:59:44.765Z,50.80
2018-12-11T17:02:14.087Z,51.50
2018-12-11T17:04:43.386Z,50.90
2018-12-11T17:07:13.050Z,51.00
2018-12-11T17:09:43.547Z,50.90
2018-12-11T17:12:13.315Z,50.90
2018-12-11T17:14:42.623Z,51.10
2018-12-11T17:17:12.065Z,51.30
2018-12-11T17:19:41.363Z,51.30
2018-12-11T17:22:10.711Z,51.30
2018-12-11T17:24:40.087Z,51.30
2018-12-11T17:27:09.453Z,51.40
2018-12-11T17:29:38.827Z,51.40
2018-12-11T17:32:08.105Z,51.30
2018-12-11T17:34:37.385Z,51.40
2018-12-11T17:37:06.705Z,51.40
2018-12-11T17:39:35.910Z,51.40
2018-12-11T17:42:05.329Z,51.50
2018-12-11T17:44:34.614Z,51.40
2018-12-11T17:47:03.932Z,51.40
2018-12-11T17:49:33.304Z,51.30
2018-12-11T17:52:02.602Z,51.40
2018-12-11T17:54:31.859Z,51.30
2018-12-11T17:57:01.246Z,51.20
2018-12-11T17:59:30.580Z,51.20
2018-12-11T18:02:04.594Z,51.20
2018-12-11T18:04:33.831Z,51.10
2018-12-11T18:07:03.274Z,51.00
2018-12-11T18:09:32.540Z,50.90
2018-12-11T18:12:01.798Z,50.80
2018-12-11T18:14:31.093Z,50.70
2018-12-11T18:17:00.371Z,50.90
2018-12-11T18:19:29.736Z,50.50
2018-12-11T18:21:59.198Z,50.40
2018-12-11T18:24:28.650Z,50.60
2018-12-11T18:26:57.918Z,48.80
2018-12-11T18:29:27.568Z,49.60
2018-12-11T18:31:56.858Z,49.60
2018-12-11T18:34:26.254Z,49.90
2018-12-11T18:36:55.840Z,50.60
2018-12-11T18:39:25.892Z,50.30
2018-12-11T18:41:55.147Z,50.40
2018-12-11T18:44:24.352Z,50.40
2018-12-11T18:46:53.610Z,50.40
2018-12-11T18:49:22.870Z,50.70
2018-12-11T18:51:52.141Z,50.80
2018-12-11T18:54:21.346Z,50.90
2018-12-11T18:56:50.535Z,51.10
2018-12-11T18:59:20.999Z,51.10
2018-12-11T19:01:50.271Z,51.20
2018-12-11T19:04:19.540Z,50.90
2018-12-11T19:06:48.760Z,51.70
2018-12-11T19:09:18.058Z,51.60
2018-12-11T19:11:47.304Z,51.50
2018-12-11T19:14:16.606Z,51.60
2018-12-11T19:16:45.855Z,51.30
2018-12-11T19:19:29.642Z,51.40
2018-12-11T19:22:26.499Z,51.30
2018-12-11T19:25:05.038Z,51.30
2018-12-11T19:27:48.629Z,51.10
2018-12-11T19:30:17.917Z,50.80
2018-12-11T19:32:47.411Z,50.60
2018-12-11T19:38:49.725Z,50.70
2018-12-11T19:41:27.227Z,50.20
2018-12-11T19:44:12.302Z,50.20
2018-12-11T19:46:41.553Z,50.20
2018-12-11T19:49:10.877Z,50.20
2018-12-11T19:51:40.158Z,50.20
2018-12-11T19:54:09.430Z,50.10
2018-12-11T19:56:38.838Z,50.00
2018-12-11T19:59:08.183Z,50.00
2018-12-11T20:01:37.462Z,50.00
2018-12-11T20:04:06.696Z,49.90
2018-12-11T20:07:04.967Z,49.80
2018-12-11T20:09:53.895Z,50.00
2018-12-11T20:12:46.795Z,49.90
2018-12-11T20:15:27.598Z,49.80
2018-12-11T20:18:17.666Z,49.80
2018-12-11T20:20:59.315Z,49.80
2018-12-11T20:23:38.526Z,49.70
2018-12-11T20:29:10.185Z,49.60
2018-12-11T20:32:10.679Z,49.50
2018-12-11T20:34:53.258Z,49.50
2018-12-11T20:37:29.491Z,49.50
2018-12-11T20:40:11.678Z,49.40
2018-12-11T20:42:40.978Z,49.30
2018-12-11T20:45:10.408Z,49.30
2018-12-11T20:47:40.706Z,49.30
2018-12-11T20:50:09.956Z,49.20
2018-12-11T20:52:39.402Z,49.20
2018-12-11T20:55:13.092Z,49.10
2018-12-11T20:57:42.498Z,49.10
2018-12-11T21:00:15.748Z,49.20
2018-12-11T21:02:52.742Z,49.30
2018-12-11T21:05:31.358Z,50.00
2018-12-11T21:08:31.101Z,49.40
2018-12-11T21:11:00.396Z,49.70
2018-12-11T21:13:29.755Z,50.40
2018-12-11T21:15:59.015Z,49.20
2018-12-11T21:18:28.288Z,49.50
2018-12-11T21:20:58.385Z,49.40
2018-12-11T21:23:28.461Z,49.50
2018-12-11T21:25:58.541Z,50.20
2018-12-11T21:28:28.635Z,50.90
2018-12-11T21:31:00.020Z,50.40
2018-12-11T21:33:31.508Z,51.30
2018-12-11T21:36:03.005Z,51.40
2018-12-11T21:38:34.791Z,51.40
2018-12-11T21:41:06.398Z,51.40
2018-12-11T21:43:37.822Z,51.50
2018-12-11T21:46:09.835Z,51.60
2018-12-11T21:48:41.734Z,51.60
2018-12-11T21:51:13.152Z,51.60
2018-12-11T21:53:44.739Z,51.50
2018-12-11T21:56:16.086Z,51.40
2018-12-11T21:58:47.272Z,51.30
2018-12-11T22:01:16.747Z,51.20
2018-12-11T22:03:46.188Z,51.20
2018-12-11T22:06:15.845Z,51.20
2018-12-11T22:08:45.338Z,51.30
2018-12-11T22:11:14.717Z,51.30
2018-12-11T22:13:44.467Z,51.50
2018-12-11T22:16:14.111Z,51.60
2018-12-11T22:18:43.650Z,51.50
2018-12-11T22:21:12.964Z,51.60
2018-12-11T22:23:42.367Z,51.90
2018-12-11T22:26:11.853Z,52.00
2018-12-11T22:28:41.270Z,52.10
2018-12-11T22:31:10.666Z,52.20
2018-12-11T22:33:40.254Z,52.10
2018-12-11T22:36:10.530Z,52.20
2018-12-11T22:38:40.339Z,52.40
2018-12-11T22:41:09.823Z,52.90
2018-12-11T22:43:39.186Z,52.90
2018-12-11T22:46:08.896Z,52.90
2018-12-11T22:48:38.622Z,52.90
2018-12-11T22:51:08.326Z,52.50
2018-12-11T22:53:37.727Z,52.20
2018-12-11T22:56:07.267Z,51.80
2018-12-11T22:58:36.682Z,51.50
2018-12-11T23:01:06.097Z,51.20
2018-12-11T23:03:35.538Z,50.90
2018-12-11T23:06:05.058Z,50.50
2018-12-11T23:08:34.615Z,50.40
2018-12-11T23:11:04.046Z,50.10
2018-12-11T23:13:33.482Z,49.80
2018-12-11T23:16:02.915Z,49.60
2018-12-11T23:18:32.353Z,49.50
2018-12-11T23:21:02.247Z,49.60
2018-12-11T23:23:31.767Z,49.20
2018-12-11T23:26:01.148Z,49.10
2018-12-11T23:28:30.464Z,49.00
2018-12-11T23:30:59.786Z,48.80
2018-12-11T23:33:29.096Z,48.60
2018-12-11T23:35:58.520Z,48.50
2018-12-11T23:38:27.926Z,48.40
2018-12-11T23:40:57.375Z,48.30
2018-12-11T23:43:26.757Z,48.20
2018-12-11T23:45:56.165Z,48.20
2018-12-11T23:48:25.617Z,48.10
2018-12-11T23:50:55.015Z,48.00
2018-12-11T23:53:24.466Z,48.00
2018-12-11T23:55:53.789Z,47.80
2018-12-11T23:58:23.213Z,47.80
